Terminal Aerodrome Forecast
Issued by NWS

Home | Current Version | Previous Version | Text Only | Print | Product List | Glossary On
Versions: 1 2 3 4 5 6 7 8 9 10 11 12 13 14 15
000
FTUS43 KIND 200500
TAFHUF
TAF
KHUF 200520Z 2006/2106 21006KT P6SM BKN110
     FM201300 23011KT P6SM VCSH BKN035
     FM202100 29010KT P6SM BKN035
     FM210200 33004KT P6SM SCT035=

USA.gov is the U.S. government's official web portal to all federal, state and local government web resources and services.